createdAt,value
2016-02-29T00:00:02.934Z,17.97
2016-02-29T00:01:02.998Z,18.03
2016-02-29T00:02:03.032Z,17.98
2016-02-29T00:03:03.098Z,17.98
2016-02-29T00:04:03.131Z,17.95
2016-02-29T00:05:03.181Z,17.92
2016-02-29T00:06:03.184Z,17.92
2016-02-29T00:07:03.295Z,17.92
2016-02-29T00:08:03.345Z,17.95
2016-02-29T00:09:03.395Z,17.9
2016-02-29T00:10:03.445Z,17.92
2016-02-29T00:11:03.510Z,17.87
2016-02-29T00:12:03.559Z,17.92
2016-02-29T00:13:03.609Z,17.92
2016-02-29T00:14:03.643Z,17.94
2016-02-29T00:15:03.708Z,17.83
2016-02-29T00:16:03.789Z,17.9
2016-02-29T00:17:03.823Z,17.86
2016-02-29T00:18:03.873Z,17.94
2016-02-29T00:19:03.922Z,17.92
2016-02-29T00:20:03.972Z,17.83
2016-02-29T00:21:04.005Z,17.85
2016-02-29T00:22:04.071Z,17.94
2016-02-29T00:23:04.121Z,17.89
2016-02-29T00:24:04.169Z,17.85
2016-02-29T00:25:04.204Z,17.9
2016-02-29T00:26:04.315Z,17.86
2016-02-29T00:27:04.319Z,17.85
2016-02-29T00:28:04.384Z,17.85
2016-02-29T00:29:04.433Z,17.85
2016-02-29T00:30:04.473Z,17.89
2016-02-29T00:31:04.522Z,17.86
2016-02-29T00:32:03.821Z,17.83
2016-02-29T00:33:04.652Z,17.86
2016-02-29T00:34:04.686Z,17.89
2016-02-29T00:35:04.720Z,17.86
2016-02-29T00:36:04.785Z,17.83
2016-02-29T00:37:04.850Z,17.82
2016-02-29T00:38:04.900Z,17.82
2016-02-29T00:39:04.949Z,17.87
2016-02-29T00:40:04.999Z,17.85
2016-02-29T00:41:05.049Z,17.85
2016-02-29T00:42:05.114Z,17.87
2016-02-29T00:43:05.132Z,17.87
2016-02-29T00:44:05.197Z,17.78
2016-02-29T00:45:05.247Z,17.8
2016-02-29T00:46:05.280Z,17.94
2016-02-29T00:47:05.361Z,17.78
2016-02-29T00:48:05.396Z,17.83
2016-02-29T00:49:05.460Z,17.83
2016-02-29T00:50:05.510Z,17.83
2016-02-29T00:51:05.544Z,17.82
2016-02-29T00:52:05.609Z,17.78
2016-02-29T00:53:05.659Z,17.86
2016-02-29T00:54:05.709Z,17.78
2016-02-29T00:55:05.773Z,17.85
2016-02-29T00:56:05.823Z,17.83
2016-02-29T00:57:05.873Z,17.78
2016-02-29T00:58:05.907Z,17.76
2016-02-29T00:59:05.972Z,17.82
2016-02-29T01:00:06.021Z,17.8
2016-02-29T01:01:06.055Z,17.86
2016-02-29T01:02:06.120Z,17.9
2016-02-29T01:03:06.170Z,17.78
2016-02-29T01:04:06.236Z,17.83
2016-02-29T01:05:06.284Z,17.78
2016-02-29T01:06:06.319Z,17.94
2016-02-29T01:07:06.400Z,17.78
2016-02-29T01:08:06.433Z,17.82
2016-02-29T01:09:06.483Z,17.82
2016-02-29T01:10:06.532Z,17.72
2016-02-29T01:11:06.597Z,17.89
2016-02-29T01:12:06.632Z,17.82
2016-02-29T01:13:06.697Z,17.78
2016-02-29T01:14:06.747Z,17.72
2016-02-29T01:15:06.796Z,17.8
2016-02-29T01:16:06.846Z,17.83
2016-02-29T01:17:06.896Z,17.71
2016-02-29T01:18:06.961Z,17.79
2016-02-29T01:19:06.994Z,17.76
2016-02-29T01:20:07.059Z,17.79
2016-02-29T01:21:07.125Z,17.8
2016-02-29T01:22:06.987Z,17.74
2016-02-29T01:23:07.193Z,17.79
2016-02-29T01:24:07.258Z,17.87
2016-02-29T01:25:07.323Z,17.86
2016-02-29T01:26:07.373Z,17.74
2016-02-29T01:27:07.391Z,17.79
2016-02-29T01:28:07.441Z,17.83
2016-02-29T01:29:07.505Z,17.72
2016-02-29T01:30:07.555Z,17.86
2016-02-29T01:31:07.604Z,17.82
2016-02-29T01:32:07.670Z,17.85
2016-02-29T01:33:07.719Z,17.79
2016-02-29T01:34:07.754Z,17.86
2016-02-29T01:35:07.819Z,17.82
2016-02-29T01:36:07.868Z,17.8
2016-02-29T01:37:07.934Z,17.68
2016-02-29T01:38:07.983Z,17.82
2016-02-29T01:39:08.032Z,17.83
2016-02-29T01:40:08.082Z,17.85
2016-02-29T01:41:08.116Z,17.82
2016-02-29T01:42:08.181Z,17.86
2016-02-29T01:43:08.215Z,17.78
2016-02-29T01:44:08.296Z,17.85
2016-02-29T01:45:08.330Z,17.72
2016-02-29T01:46:08.380Z,17.82
2016-02-29T01:47:08.429Z,17.82
2016-02-29T01:48:08.479Z,17.8
2016-02-29T01:49:08.528Z,17.8
2016-02-29T01:50:08.577Z,17.8
2016-02-29T01:51:08.658Z,17.71
2016-02-29T01:52:08.693Z,17.83
2016-02-29T01:53:08.805Z,17.8
2016-02-29T01:54:08.808Z,17.82
2016-02-29T01:55:08.841Z,17.79
2016-02-29T01:56:08.907Z,17.79
2016-02-29T01:57:08.941Z,17.82
2016-02-29T01:58:09.021Z,17.76
2016-02-29T01:59:09.040Z,17.86
2016-02-29T02:00:09.118Z,17.76
2016-02-29T02:01:09.137Z,17.76
2016-02-29T02:02:09.016Z,17.82
2016-02-29T02:03:09.222Z,17.79
2016-02-29T02:04:09.241Z,17.78
2016-02-29T02:05:09.136Z,17.74
2016-02-29T02:06:09.336Z,17.82
2016-02-29T02:07:09.397Z,17.74
2016-02-29T02:08:09.425Z,17.79
2016-02-29T02:09:09.453Z,17.79
2016-02-29T02:10:09.514Z,17.79
2016-02-29T02:11:09.562Z,17.78
2016-02-29T02:12:09.609Z,17.8
2016-02-29T02:13:09.656Z,17.76
2016-02-29T02:14:09.720Z,17.78
2016-02-29T02:15:09.752Z,17.72
2016-02-29T02:16:09.801Z,17.72
2016-02-29T02:17:09.850Z,17.7
2016-02-29T02:18:09.914Z,17.68
2016-02-29T02:19:09.212Z,17.76
2016-02-29T02:20:10.043Z,17.64
2016-02-29T02:21:10.061Z,17.65
2016-02-29T02:22:10.112Z,17.65
2016-02-29T02:23:10.161Z,17.63
2016-02-29T02:24:10.211Z,17.74
2016-02-29T02:25:10.276Z,17.56
2016-02-29T02:26:10.325Z,17.63
2016-02-29T02:27:10.359Z,17.63
2016-02-29T02:28:10.424Z,17.63
2016-02-29T02:29:10.474Z,17.64
2016-02-29T02:30:10.522Z,17.64
2016-02-29T02:31:10.589Z,17.7
2016-02-29T02:32:10.623Z,17.63
2016-02-29T02:33:10.688Z,17.63
2016-02-29T02:34:10.738Z,17.65
2016-02-29T02:35:10.771Z,17.67
2016-02-29T02:36:10.836Z,17.57
2016-02-29T02:37:10.886Z,17.59
2016-02-29T02:38:10.935Z,17.65
2016-02-29T02:39:10.985Z,17.57
2016-02-29T02:40:11.050Z,17.59
2016-02-29T02:41:11.084Z,17.7
2016-02-29T02:42:11.134Z,17.65
2016-02-29T02:43:11.183Z,17.64
2016-02-29T02:44:11.233Z,17.57
2016-02-29T02:45:11.298Z,17.67
2016-02-29T02:46:11.348Z,17.65
2016-02-29T02:47:11.398Z,17.67
2016-02-29T02:48:11.446Z,17.6
2016-02-29T02:49:11.511Z,17.63
2016-02-29T02:50:11.546Z,17.65
2016-02-29T02:51:11.454Z,17.7
2016-02-29T02:52:11.645Z,17.67
2016-02-29T02:53:11.695Z,17.65
2016-02-29T02:54:11.744Z,17.65
2016-02-29T02:55:11.794Z,17.68
2016-02-29T02:56:11.843Z,17.67
2016-02-29T02:57:11.908Z,17.6
2016-02-29T02:58:11.959Z,17.67
2016-02-29T02:59:12.023Z,17.64
2016-02-29T03:00:12.058Z,17.63
2016-02-29T03:01:12.106Z,17.63
2016-02-29T03:02:12.172Z,17.64
2016-02-29T03:03:12.222Z,17.63
2016-02-29T03:04:12.256Z,17.57
2016-02-29T03:05:12.305Z,17.57
2016-02-29T03:06:12.370Z,17.54
2016-02-29T03:07:12.436Z,17.59
2016-02-29T03:08:12.469Z,17.63
2016-02-29T03:09:12.519Z,17.65
2016-02-29T03:10:12.569Z,17.64
2016-02-29T03:11:12.462Z,17.65
2016-02-29T03:12:12.683Z,17.57
2016-02-29T03:13:12.718Z,17.44
2016-02-29T03:14:12.782Z,17.54
2016-02-29T03:15:12.816Z,17.45
2016-02-29T03:16:12.882Z,17.52
2016-02-29T03:17:12.932Z,17.44
2016-02-29T03:18:12.981Z,17.63
2016-02-29T03:19:13.062Z,17.49
2016-02-29T03:20:13.095Z,17.64
2016-02-29T03:21:13.145Z,17.45
2016-02-29T03:22:13.194Z,17.64
2016-02-29T03:23:13.260Z,17.59
2016-02-29T03:24:13.293Z,17.63
2016-02-29T03:25:13.343Z,17.48
2016-02-29T03:26:13.408Z,17.46
2016-02-29T03:27:13.442Z,17.46
2016-02-29T03:28:13.492Z,17.54
2016-02-29T03:29:13.526Z,17.48
2016-02-29T03:30:13.576Z,17.52
2016-02-29T03:31:13.641Z,17.59
2016-02-29T03:32:13.675Z,17.46
2016-02-29T03:33:13.755Z,17.52
2016-02-29T03:34:13.806Z,17.46
2016-02-29T03:35:13.870Z,17.48
2016-02-29T03:36:13.905Z,17.48
2016-02-29T03:37:13.953Z,17.49
2016-02-29T03:38:14.003Z,17.51
2016-02-29T03:39:14.037Z,17.51
2016-02-29T03:40:14.086Z,17.48
2016-02-29T03:41:14.151Z,17.49
2016-02-29T03:42:14.185Z,17.46
2016-02-29T03:43:14.252Z,17.48
2016-02-29T03:44:14.301Z,17.49
2016-02-29T03:45:14.349Z,17.44
2016-02-29T03:46:14.399Z,17.51
2016-02-29T03:47:14.449Z,17.48
2016-02-29T03:48:14.515Z,17.48
2016-02-29T03:49:14.565Z,17.48
2016-02-29T03:50:14.613Z,17.49
2016-02-29T03:51:14.648Z,17.51
2016-02-29T03:52:14.697Z,17.45
2016-02-29T03:53:14.763Z,17.49
2016-02-29T03:54:14.828Z,17.45
2016-02-29T03:55:14.877Z,17.42
2016-02-29T03:56:14.911Z,17.45
2016-02-29T03:57:14.961Z,17.41
2016-02-29T03:58:15.026Z,17.44
2016-02-29T03:59:15.060Z,17.46
2016-02-29T04:00:15.109Z,17.45
2016-02-29T04:01:15.159Z,17.51
2016-02-29T04:02:15.240Z,17.45
2016-02-29T04:03:15.259Z,17.54
2016-02-29T04:04:15.323Z,17.34
2016-02-29T04:05:15.373Z,17.42
2016-02-29T04:06:15.423Z,17.42
2016-02-29T04:07:15.456Z,17.36
2016-02-29T04:08:15.521Z,17.41
2016-02-29T04:09:15.555Z,17.46
2016-02-29T04:10:15.636Z,17.48
2016-02-29T04:11:15.669Z,17.46
2016-02-29T04:12:15.719Z,17.44
2016-02-29T04:13:15.769Z,17.41
2016-02-29T04:14:15.850Z,17.34
2016-02-29T04:15:15.899Z,17.41
2016-02-29T04:16:15.949Z,17.39
2016-02-29T04:17:15.982Z,17.44
2016-02-29T04:18:16.049Z,17.39
2016-02-29T04:19:16.098Z,17.41
2016-02-29T04:20:16.132Z,17.36
2016-02-29T04:21:16.197Z,17.44
2016-02-29T04:22:16.262Z,17.44
2016-02-29T04:23:16.296Z,17.44
2016-02-29T04:24:16.345Z,17.44
2016-02-29T04:25:16.411Z,17.46
2016-02-29T04:26:16.429Z,17.39
2016-02-29T04:27:16.495Z,17.39
2016-02-29T04:28:16.530Z,17.52
2016-02-29T04:29:16.626Z,17.42
2016-02-29T04:30:16.644Z,17.45
2016-02-29T04:31:16.694Z,17.44
2016-02-29T04:32:16.743Z,17.49
2016-02-29T04:33:16.824Z,17.42
2016-02-29T04:34:16.857Z,17.38
2016-02-29T04:35:16.908Z,17.44
2016-02-29T04:36:16.957Z,17.38
2016-02-29T04:37:17.023Z,17.42
2016-02-29T04:38:17.056Z,17.36
2016-02-29T04:39:17.106Z,17.41
2016-02-29T04:40:17.156Z,17.42
2016-02-29T04:41:17.236Z,17.39
2016-02-29T04:42:17.270Z,17.36
2016-02-29T04:43:17.320Z,17.38
2016-02-29T04:44:17.384Z,17.42
2016-02-29T04:45:17.419Z,17.36
2016-02-29T04:46:17.468Z,17.39
2016-02-29T04:47:17.517Z,17.34
2016-02-29T04:48:17.584Z,17.44
2016-02-29T04:49:17.633Z,17.39
2016-02-29T04:50:17.683Z,17.36
2016-02-29T04:51:17.716Z,17.31
2016-02-29T04:52:17.766Z,17.39
2016-02-29T04:53:17.831Z,17.3
2016-02-29T04:54:17.896Z,17.38
2016-02-29T04:55:17.946Z,17.38
2016-02-29T04:56:17.964Z,17.38
2016-02-29T04:57:18.030Z,17.38
2016-02-29T04:58:18.079Z,17.42
2016-02-29T04:59:18.144Z,17.33
2016-02-29T05:00:18.193Z,17.38
2016-02-29T05:01:18.244Z,17.38
2016-02-29T05:02:18.293Z,17.38
2016-02-29T05:03:18.343Z,17.39
2016-02-29T05:04:18.391Z,17.38
2016-02-29T05:05:18.441Z,17.33
2016-02-29T05:06:18.494Z,17.31
2016-02-29T05:07:18.543Z,17.36
2016-02-29T05:08:18.609Z,17.36
2016-02-29T05:09:18.658Z,17.29
2016-02-29T05:10:18.692Z,17.29
2016-02-29T05:11:18.742Z,17.36
2016-02-29T05:12:18.806Z,17.29
2016-02-29T05:13:18.856Z,17.31
2016-02-29T05:14:18.907Z,17.33
2016-02-29T05:15:18.940Z,17.29
2016-02-29T05:16:19.006Z,17.31
2016-02-29T05:17:19.054Z,17.27
2016-02-29T05:18:19.120Z,17.29
2016-02-29T05:19:19.138Z,17.31
2016-02-29T05:20:19.203Z,17.29
2016-02-29T05:21:19.253Z,17.24
2016-02-29T05:22:19.302Z,17.3
2016-02-29T05:23:19.367Z,17.26
2016-02-29T05:24:19.402Z,17.29
2016-02-29T05:25:19.450Z,17.26
2016-02-29T05:26:19.516Z,17.3
2016-02-29T05:27:19.550Z,17.26
2016-02-29T05:28:19.600Z,17.27
2016-02-29T05:29:19.665Z,17.26
2016-02-29T05:30:19.714Z,17.31
2016-02-29T05:31:19.763Z,17.27
2016-02-29T05:32:19.844Z,17.23
2016-02-29T05:33:19.864Z,17.27
2016-02-29T05:34:19.929Z,17.3
2016-02-29T05:35:19.963Z,17.27
2016-02-29T05:36:20.012Z,17.24
2016-02-29T05:37:20.093Z,17.29
2016-02-29T05:38:20.127Z,17.26
2016-02-29T05:39:20.161Z,17.24
2016-02-29T05:40:20.226Z,17.29
2016-02-29T05:41:20.276Z,17.29
2016-02-29T05:42:20.325Z,17.24
2016-02-29T05:43:20.375Z,17.29
2016-02-29T05:44:20.423Z,17.26
2016-02-29T05:45:20.490Z,17.3
2016-02-29T05:46:20.524Z,17.24
2016-02-29T05:47:20.589Z,17.29
2016-02-29T05:48:20.654Z,17.23
2016-02-29T05:49:20.704Z,17.23
2016-02-29T05:50:20.722Z,17.19
2016-02-29T05:51:20.771Z,17.2
2016-02-29T05:52:20.821Z,17.2
2016-02-29T05:53:20.886Z,17.16
2016-02-29T05:54:20.920Z,17.15
2016-02-29T05:55:20.985Z,17.16
2016-02-29T05:56:21.034Z,17.2
2016-02-29T05:57:20.926Z,17.11
2016-02-29T05:58:20.983Z,17.2
2016-02-29T05:59:21.037Z,17.2
2016-02-29T06:00:21.322Z,17.19
2016-02-29T06:01:21.944Z,17.16
2016-02-29T06:02:22.869Z,17.22
2016-02-29T06:03:22.012Z,17.2
2016-02-29T06:04:22.921Z,17.2
2016-02-29T06:05:22.925Z,17.19
2016-02-29T06:06:23.270Z,17.19
2016-02-29T06:07:22.898Z,17.19
2016-02-29T06:08:21.682Z,17.22
2016-02-29T06:09:21.982Z,17.19
2016-02-29T06:10:21.750Z,17.16
2016-02-29T06:11:21.800Z,17.2
2016-02-29T06:12:21.740Z,17.12
2016-02-29T06:13:21.899Z,17.22
2016-02-29T06:14:21.963Z,17.19
2016-02-29T06:15:21.999Z,17.19
2016-02-29T06:16:22.047Z,17.19
2016-02-29T06:17:22.113Z,17.12
2016-02-29T06:18:22.155Z,17.2
2016-02-29T06:19:22.204Z,17.15
2016-02-29T06:20:22.269Z,17.15
2016-02-29T06:21:22.303Z,17.22
2016-02-29T06:22:22.352Z,17.14
2016-02-29T06:23:22.418Z,17.16
2016-02-29T06:24:22.452Z,17.11
2016-02-29T06:25:22.517Z,17.19
2016-02-29T06:26:22.567Z,17.12
2016-02-29T06:27:22.647Z,17.14
2016-02-29T06:28:22.681Z,17.11
2016-02-29T06:29:22.715Z,17.08
2016-02-29T06:30:22.765Z,17.19
2016-02-29T06:31:22.830Z,17.14
2016-02-29T06:32:22.864Z,17.06
2016-02-29T06:33:22.913Z,17.11
2016-02-29T06:34:22.963Z,17.06
2016-02-29T06:35:23.028Z,17.06
2016-02-29T06:36:23.078Z,17.12
2016-02-29T06:37:23.128Z,17.12
2016-02-29T06:38:23.161Z,17.09
2016-02-29T06:39:23.227Z,17.12
2016-02-29T06:40:23.275Z,17.16
2016-02-29T06:41:23.325Z,17.14
2016-02-29T06:42:23.375Z,17.11
2016-02-29T06:43:23.425Z,17.16
2016-02-29T06:44:23.474Z,17.06
2016-02-29T06:45:23.524Z,17.11
2016-02-29T06:46:23.588Z,17.12
2016-02-29T06:47:23.639Z,17.12
2016-02-29T06:48:23.672Z,17.08
2016-02-29T06:49:23.738Z,17.08
2016-02-29T06:50:23.787Z,17.14
2016-02-29T06:51:23.852Z,17.12
2016-02-29T06:52:23.902Z,17.08
2016-02-29T06:53:23.935Z,17.08
2016-02-29T06:54:23.985Z,17.08
2016-02-29T06:55:24.035Z,17.11
2016-02-29T06:56:24.116Z,17.09
2016-02-29T06:57:24.150Z,17.09
2016-02-29T06:58:24.184Z,17.11
2016-02-29T06:59:24.248Z,17.09
2016-02-29T07:00:24.299Z,17.12
2016-02-29T07:01:24.348Z,17.11
2016-02-29T07:02:24.398Z,17.12
2016-02-29T07:03:24.447Z,17.11
2016-02-29T07:04:24.497Z,17.11
2016-02-29T07:05:24.547Z,17.11
2016-02-29T07:06:24.611Z,17.12
2016-02-29T07:07:24.661Z,17.12
2016-02-29T07:08:24.695Z,17.11
2016-02-29T07:09:24.744Z,17.15
2016-02-29T07:10:24.810Z,17.12
2016-02-29T07:11:24.859Z,17.08
2016-02-29T07:12:24.924Z,17.09
2016-02-29T07:13:24.974Z,17.12
2016-02-29T07:14:25.024Z,17.14
2016-02-29T07:15:25.074Z,17.12
2016-02-29T07:16:25.107Z,17.14
2016-02-29T07:17:25.157Z,17.09
2016-02-29T07:18:25.222Z,17.14
2016-02-29T07:19:25.272Z,17.08
2016-02-29T07:20:25.305Z,17.11
2016-02-29T07:21:25.371Z,17.11
2016-02-29T07:22:25.404Z,17.14
2016-02-29T07:23:25.454Z,17.09
2016-02-29T07:24:25.519Z,17.11
2016-02-29T07:25:25.600Z,17.14
2016-02-29T07:26:25.619Z,17.14
2016-02-29T07:27:25.699Z,17.06
2016-02-29T07:28:25.718Z,17.14
2016-02-29T07:29:25.767Z,17.11
2016-02-29T07:30:25.832Z,17.11
2016-02-29T07:31:25.851Z,17.09
2016-02-29T07:32:25.931Z,17.08
2016-02-29T07:33:25.997Z,17.11
2016-02-29T07:34:26.015Z,17.09
2016-02-29T07:35:26.080Z,17.19
2016-02-29T07:36:26.130Z,17.09
2016-02-29T07:37:26.179Z,17.15
2016-02-29T07:38:26.244Z,17.12
2016-02-29T07:39:26.279Z,17.09
2016-02-29T07:40:26.328Z,17.11
2016-02-29T07:41:26.378Z,17.12
2016-02-29T07:42:26.505Z,17.11
2016-02-29T07:43:26.477Z,17.08
2016-02-29T07:44:26.527Z,17.08
2016-02-29T07:45:27.030Z,17.11
2016-02-29T07:46:26.625Z,17.11
2016-02-29T07:47:26.706Z,17.12
2016-02-29T07:48:26.741Z,17.11
2016-02-29T07:49:26.461Z,17.12
2016-02-29T07:50:26.839Z,17.16
2016-02-29T07:51:26.904Z,17.11
2016-02-29T07:52:26.954Z,17.08
2016-02-29T07:53:26.988Z,17.12
2016-02-29T07:54:27.038Z,17.15
2016-02-29T07:55:27.102Z,17.11
2016-02-29T07:56:27.137Z,17.15
2016-02-29T07:57:27.249Z,17.19
2016-02-29T07:58:27.252Z,17.22
2016-02-29T07:59:27.285Z,17.15
2016-02-29T08:00:27.335Z,17.15
2016-02-29T08:01:27.400Z,17.15
2016-02-29T08:02:27.465Z,17.2
2016-02-29T08:03:27.498Z,17.26
2016-02-29T08:04:27.564Z,17.23
2016-02-29T08:05:27.599Z,17.26
2016-02-29T08:06:27.664Z,17.26
2016-02-29T08:07:27.697Z,17.24
2016-02-29T08:08:27.762Z,17.24
2016-02-29T08:09:27.812Z,17.44
2016-02-29T08:10:27.862Z,17.6
2016-02-29T08:11:27.912Z,17.67
2016-02-29T08:12:27.961Z,17.64
2016-02-29T08:13:28.026Z,17.49
2016-02-29T08:14:28.060Z,17.39
2016-02-29T08:15:28.125Z,17.3
2016-02-29T08:16:28.174Z,17.11
2016-02-29T08:17:28.224Z,16.87
2016-02-29T08:18:28.289Z,16.71
2016-02-29T08:19:28.308Z,16.53
2016-02-29T08:20:27.623Z,16.33
2016-02-29T08:21:28.438Z,16
2016-02-29T08:22:28.471Z,15.68
2016-02-29T08:23:28.522Z,15.55
2016-02-29T08:24:28.572Z,15.43
2016-02-29T08:25:28.652Z,15.36
2016-02-29T08:26:28.671Z,15.27
2016-02-29T08:27:28.721Z,15.04
2016-02-29T08:28:28.754Z,15.14
2016-02-29T08:29:28.818Z,15.31
2016-02-29T08:30:28.884Z,15.42
2016-02-29T08:31:28.919Z,15.49
2016-02-29T08:32:28.968Z,15.67
2016-02-29T08:33:29.018Z,15.8
2016-02-29T08:34:29.067Z,16.04
2016-02-29T08:35:29.117Z,16.17
2016-02-29T08:36:29.166Z,16.29
2016-02-29T08:37:29.215Z,16.41
2016-02-29T08:38:29.265Z,16.56
2016-02-29T08:39:29.315Z,16.68
2016-02-29T08:40:29.381Z,16.74
2016-02-29T08:41:29.414Z,16.81
2016-02-29T08:42:29.464Z,16.99
2016-02-29T08:43:29.513Z,17.08
2016-02-29T08:44:29.579Z,17.2
2016-02-29T08:45:29.628Z,17.29
2016-02-29T08:46:29.787Z,17.39
2016-02-29T08:47:29.821Z,17.41
2016-02-29T08:48:29.777Z,17.48
2016-02-29T08:49:29.810Z,17.51
2016-02-29T08:50:29.875Z,17.63
2016-02-29T08:51:29.924Z,17.68
2016-02-29T08:52:29.960Z,17.79
2016-02-29T08:53:30.041Z,17.8
2016-02-29T08:54:30.074Z,17.85
2016-02-29T08:55:30.139Z,17.8
2016-02-29T08:56:30.188Z,17.97
2016-02-29T08:57:30.223Z,17.98
2016-02-29T08:58:30.271Z,17.97
2016-02-29T08:59:30.321Z,18.01
2016-02-29T09:00:30.372Z,18
2016-02-29T09:01:30.437Z,18.03
2016-02-29T09:02:30.487Z,18.01
2016-02-29T09:03:30.535Z,18.13
2016-02-29T09:04:30.569Z,18.08
2016-02-29T09:05:30.639Z,18.1
2016-02-29T09:06:30.715Z,18.11
2016-02-29T09:07:30.780Z,18.1
2016-02-29T09:08:30.783Z,18.07
2016-02-29T09:09:30.847Z,18.15
2016-02-29T09:10:30.897Z,18.13
2016-02-29T09:11:30.930Z,18.11
2016-02-29T09:12:30.980Z,18.19
2016-02-29T09:13:31.108Z,18.19
2016-02-29T09:14:31.080Z,18.19
2016-02-29T09:15:31.130Z,18.19
2016-02-29T09:16:31.194Z,18.22
2016-02-29T09:17:31.243Z,18.28
2016-02-29T09:18:31.279Z,18.26
2016-02-29T09:19:31.344Z,18.34
2016-02-29T09:20:31.393Z,18.37
2016-02-29T09:21:31.427Z,18.41
2016-02-29T09:22:31.507Z,18.38
2016-02-29T09:23:31.542Z,18.4
2016-02-29T09:24:31.606Z,18.49
2016-02-29T09:25:31.672Z,18.5
2016-02-29T09:26:31.722Z,18.5
2016-02-29T09:27:31.756Z,18.52
2016-02-29T09:28:31.837Z,18.49
2016-02-29T09:29:31.854Z,18.63
2016-02-29T09:30:31.903Z,18.62
2016-02-29T09:31:31.953Z,18.6
2016-02-29T09:32:32.004Z,18.7
2016-02-29T09:33:31.897Z,18.68
2016-02-29T09:34:32.118Z,18.71
2016-02-29T09:35:32.167Z,18.68
2016-02-29T09:36:32.233Z,18.73
2016-02-29T09:37:32.251Z,18.77
2016-02-29T09:38:32.317Z,18.7
2016-02-29T09:39:32.366Z,18.71
2016-02-29T09:40:32.416Z,18.73
2016-02-29T09:41:32.465Z,18.75
2016-02-29T09:42:32.514Z,18.78
2016-02-29T09:43:32.563Z,18.77
2016-02-29T09:44:32.629Z,18.8
2016-02-29T09:45:32.679Z,18.81
2016-02-29T09:46:32.713Z,18.81
2016-02-29T10:16:15.230Z,18.73
2016-02-29T10:16:27.652Z,18.74
2016-02-29T10:17:27.717Z,18.77
2016-02-29T10:18:27.752Z,18.73
2016-02-29T10:19:27.817Z,18.73
2016-02-29T10:20:27.866Z,18.83
2016-02-29T10:21:28.634Z,18.71
2016-02-29T10:22:27.965Z,18.74
2016-02-29T10:23:28.014Z,18.75
2016-02-29T10:24:28.064Z,18.66
2016-02-29T10:25:28.114Z,18.75
2016-02-29T10:26:28.179Z,18.74
2016-02-29T10:27:28.213Z,18.78
2016-02-29T10:28:28.278Z,18.71
2016-02-29T10:29:28.328Z,18.77
2016-02-29T10:30:28.378Z,18.7
2016-02-29T10:31:28.411Z,18.75
2016-02-29T10:32:28.539Z,18.66
2016-02-29T10:33:28.541Z,18.77
2016-02-29T10:34:28.575Z,18.75
2016-02-29T10:35:28.641Z,18.68
2016-02-29T10:36:28.691Z,18.73
2016-02-29T10:37:28.724Z,18.74
2016-02-29T10:38:28.805Z,18.75
2016-02-29T10:39:28.855Z,18.62
2016-02-29T10:40:28.904Z,18.7
2016-02-29T10:41:28.969Z,18.7
2016-02-29T10:42:28.988Z,18.7
2016-02-29T10:43:29.037Z,18.53
2016-02-29T10:44:29.134Z,18.53
2016-02-29T10:45:29.183Z,18.23
2016-02-29T10:46:29.202Z,18.13
2016-02-29T10:47:29.298Z,17.74
2016-02-29T10:48:29.332Z,17.65
2016-02-29T10:49:29.226Z,17.38
2016-02-29T10:50:29.431Z,17.09
2016-02-29T10:51:29.481Z,16.81
2016-02-29T10:52:29.499Z,16.57
2016-02-29T10:53:29.564Z,16.36
2016-02-29T10:54:29.614Z,16.21
2016-02-29T10:55:29.695Z,16
2016-02-29T10:56:29.712Z,15.9
2016-02-29T10:57:29.794Z,15.79
2016-02-29T10:58:29.843Z,15.79
2016-02-29T10:59:29.892Z,15.88
2016-02-29T11:00:29.911Z,15.98
2016-02-29T11:01:29.961Z,16.01
2016-02-29T11:02:30.073Z,16.13
2016-02-29T11:03:30.060Z,16.29
2016-02-29T11:04:30.172Z,16.41
2016-02-29T11:05:30.164Z,16.53
2016-02-29T11:06:30.226Z,16.51
2016-02-29T11:07:30.265Z,16.65
2016-02-29T11:08:30.303Z,16.68
2016-02-29T11:09:30.327Z,16.79
2016-02-29T11:10:30.380Z,16.97
2016-02-29T11:11:30.420Z,17.05
2016-02-29T11:12:30.482Z,17.08
2016-02-29T11:13:30.512Z,17.15
2016-02-29T11:14:30.541Z,17.23
2016-02-29T11:15:30.619Z,17.26
2016-02-29T11:16:30.649Z,17.36
2016-02-29T11:17:30.729Z,17.45
2016-02-29T11:18:30.761Z,17.34
2016-02-29T11:19:30.872Z,17.39
2016-02-29T11:20:30.858Z,17.48
2016-02-29T11:21:30.891Z,17.48
2016-02-29T11:22:30.955Z,17.51
2016-02-29T11:23:31.004Z,17.67
2016-02-29T11:24:31.069Z,17.45
2016-02-29T11:25:31.103Z,17.39
2016-02-29T11:26:31.199Z,17.02
2016-02-29T11:27:31.201Z,16.81
2016-02-29T11:28:31.265Z,16.56
2016-02-29T11:29:31.346Z,16.42
2016-02-29T11:30:31.348Z,16.09
2016-02-29T11:31:31.398Z,16.12
2016-02-29T11:32:31.447Z,16.09
2016-02-29T11:33:31.497Z,16.09
2016-02-29T11:34:31.578Z,16.26
2016-02-29T11:35:31.611Z,16.23
2016-02-29T11:36:31.677Z,16.46
2016-02-29T11:37:31.695Z,16.49
2016-02-29T11:38:31.760Z,16.61
2016-02-29T11:39:32.294Z,16.69
2016-02-29T11:40:31.844Z,16.86
2016-02-29T11:41:31.971Z,16.87
2016-02-29T11:42:31.958Z,17.04
2016-02-29T11:43:32.024Z,17.16
2016-02-29T11:44:32.073Z,17.16
2016-02-29T11:45:32.154Z,17.29
2016-02-29T11:46:32.156Z,17.38
2016-02-29T11:47:32.222Z,17.41
2016-02-29T11:48:32.256Z,17.46
2016-02-29T11:49:32.321Z,17.49
2016-02-29T11:50:32.371Z,17.65
2016-02-29T11:51:32.404Z,17.63
2016-02-29T11:52:32.314Z,17.79
2016-02-29T11:53:32.504Z,17.85
2016-02-29T11:54:32.585Z,17.76
2016-02-29T11:55:32.618Z,17.86
2016-02-29T11:56:32.668Z,17.8
2016-02-29T11:57:32.717Z,17.83
2016-02-29T11:58:32.798Z,17.9
2016-02-29T11:59:32.833Z,17.95
2016-02-29T12:00:32.867Z,18.01
2016-02-29T12:01:32.947Z,18.04
2016-02-29T12:02:32.981Z,18.08
2016-02-29T12:03:33.014Z,18.13
2016-02-29T12:04:33.080Z,18.15
2016-02-29T12:05:33.114Z,18.11
2016-02-29T12:06:33.180Z,18.18
2016-02-29T12:07:33.245Z,18.2
2016-02-29T12:08:33.263Z,18.2
2016-02-29T12:09:33.344Z,18.26
2016-02-29T12:10:33.377Z,18.28
2016-02-29T12:11:33.443Z,18.28
2016-02-29T12:12:33.493Z,18.37
2016-02-29T12:13:33.746Z,18.4
2016-02-29T12:14:33.576Z,18.28
2016-02-29T12:15:33.672Z,18.43
2016-02-29T12:16:33.691Z,18.41
2016-02-29T12:17:33.741Z,18.35
2016-02-29T12:18:33.774Z,18.44
2016-02-29T12:19:33.855Z,18.4
2016-02-29T12:20:33.905Z,18.49
2016-02-29T12:21:33.938Z,18.55
2016-02-29T12:22:34.004Z,18.47
2016-02-29T12:23:34.038Z,18.56
2016-02-29T12:24:34.087Z,18.62
2016-02-29T12:25:34.153Z,18.56
2016-02-29T12:26:34.201Z,18.62
2016-02-29T12:27:34.267Z,18.63
2016-02-29T12:28:34.317Z,18.66
2016-02-29T12:29:34.366Z,18.63
2016-02-29T12:30:34.400Z,18.66
2016-02-29T12:31:34.450Z,18.62
2016-02-29T12:32:34.499Z,18.63
2016-02-29T12:33:34.550Z,18.53
2016-02-29T12:34:34.692Z,18.53
2016-02-29T12:35:34.664Z,18.53
2016-02-29T12:36:34.714Z,18.56
2016-02-29T12:37:34.763Z,18.52
2016-02-29T12:38:34.813Z,18.49
2016-02-29T12:39:34.861Z,18.53
2016-02-29T12:40:34.928Z,18.56
2016-02-29T12:41:34.961Z,18.53
2016-02-29T12:42:35.027Z,18.25
2016-02-29T12:43:35.076Z,18.07
2016-02-29T12:44:35.125Z,17.86
2016-02-29T12:45:35.174Z,17.79
2016-02-29T12:46:35.241Z,17.41
2016-02-29T12:47:35.274Z,17.49
2016-02-29T12:48:35.324Z,17.34
2016-02-29T12:49:35.373Z,17.14
2016-02-29T12:50:35.438Z,16.84
2016-02-29T12:51:35.473Z,16.81
2016-02-29T12:52:35.522Z,16.61
2016-02-29T12:53:35.587Z,16.64
2016-02-29T12:54:35.465Z,16.49
2016-02-29T12:55:35.687Z,16.41
2016-02-29T12:56:35.736Z,16.39
2016-02-29T12:57:35.817Z,16.47
2016-02-29T12:58:35.850Z,16.42
2016-02-29T12:59:35.900Z,16.47
2016-02-29T13:00:35.950Z,16.61
2016-02-29T13:01:35.984Z,16.58
2016-02-29T13:02:36.048Z,16.71
2016-02-29T13:03:36.114Z,16.69
2016-02-29T13:04:36.148Z,16.81
2016-02-29T13:05:36.188Z,16.84
2016-02-29T13:06:36.253Z,16.94
2016-02-29T13:07:36.318Z,16.93
2016-02-29T13:08:36.352Z,16.9
2016-02-29T13:09:36.401Z,16.81
2016-02-29T13:10:36.436Z,16.84
2016-02-29T13:11:36.486Z,16.84
2016-02-29T13:12:36.551Z,16.83
2016-02-29T13:13:36.631Z,16.93
2016-02-29T13:14:36.650Z,17.11
2016-02-29T13:15:36.714Z,17.12
2016-02-29T13:16:36.764Z,17.23
2016-02-29T13:17:37.783Z,17.29
2016-02-29T13:18:36.864Z,17.33
2016-02-29T13:19:36.897Z,17.38
2016-02-29T13:20:36.947Z,17.46
2016-02-29T13:21:37.027Z,17.44
2016-02-29T13:22:37.077Z,17.48
2016-02-29T13:23:37.111Z,17.6